createdAt,value
2023-01-09T00:01:41.611Z,9.90
2023-01-09T00:04:10.329Z,9.90
2023-01-09T00:06:40.719Z,9.90
2023-01-09T00:09:08.958Z,9.90
2023-01-09T00:11:37.720Z,9.90
2023-01-09T00:14:06.087Z,9.90
2023-01-09T00:16:36.150Z,9.90
2023-01-09T00:19:04.865Z,9.90
2023-01-09T00:21:33.017Z,9.90
2023-01-09T00:24:01.652Z,9.90
2023-01-09T00:26:30.199Z,10.00
2023-01-09T00:28:58.824Z,9.90
2023-01-09T00:31:27.033Z,9.90
2023-01-09T00:34:00.439Z,9.90
2023-01-09T00:36:29.022Z,9.90
2023-01-09T00:38:57.707Z,9.90
2023-01-09T00:41:28.881Z,9.90
2023-01-09T00:44:03.362Z,9.80
2023-01-09T00:46:34.219Z,9.90
2023-01-09T00:49:05.965Z,9.90
2023-01-09T00:51:34.092Z,9.90
2023-01-09T00:54:04.425Z,10.00
2023-01-09T00:56:33.528Z,9.90
2023-01-09T00:59:02.235Z,9.90
2023-01-09T01:01:30.542Z,9.90
2023-01-09T01:03:59.329Z,9.90
2023-01-09T01:06:46.097Z,9.90
2023-01-09T01:09:14.727Z,9.90
2023-01-09T01:11:43.288Z,9.90
2023-01-09T01:14:11.387Z,9.90
2023-01-09T01:16:40.024Z,9.90
2023-01-09T01:19:08.172Z,9.90
2023-01-09T01:21:38.144Z,9.90
2023-01-09T01:24:06.969Z,9.90
2023-01-09T01:26:35.596Z,9.90
2023-01-09T01:29:03.700Z,9.90
2023-01-09T01:31:32.259Z,9.90
2023-01-09T01:34:00.389Z,9.90
2023-01-09T01:36:29.024Z,9.90
2023-01-09T01:38:59.145Z,9.90
2023-01-09T01:41:30.871Z,9.90
2023-01-09T01:44:01.492Z,9.90
2023-01-09T01:46:30.517Z,9.90
2023-01-09T01:49:02.184Z,10.90
2023-01-09T01:51:34.156Z,9.90
2023-01-09T01:54:09.745Z,9.90
2023-01-09T01:56:41.565Z,9.90
2023-01-09T01:59:14.474Z,9.90
2023-01-09T02:01:47.537Z,9.90
2023-01-09T02:04:16.286Z,9.90
2023-01-09T02:06:47.013Z,10.00
2023-01-09T02:09:19.740Z,10.00
2023-01-09T02:11:48.828Z,10.00
2023-01-09T02:14:18.412Z,10.00
2023-01-09T02:16:56.253Z,10.00
2023-01-09T02:19:51.857Z,10.00
2023-01-09T02:22:31.547Z,10.00
2023-01-09T02:25:21.534Z,10.10
2023-01-09T02:28:15.981Z,10.10
2023-01-09T02:30:50.253Z,10.10
2023-01-09T02:33:43.824Z,10.10
2023-01-09T02:36:24.267Z,10.10
2023-01-09T02:39:05.908Z,10.10
2023-01-09T02:41:41.218Z,10.10
2023-01-09T02:44:21.960Z,10.10
2023-01-09T02:47:02.120Z,10.10
2023-01-09T02:49:30.971Z,10.20
2023-01-09T02:52:11.732Z,10.20
2023-01-09T02:54:51.852Z,10.20
2023-01-09T02:57:32.194Z,10.20
2023-01-09T03:00:19.162Z,10.20
2023-01-09T03:02:52.941Z,10.20
2023-01-09T03:05:27.684Z,10.30
2023-01-09T03:08:01.811Z,10.20
2023-01-09T03:10:37.641Z,10.30
2023-01-09T03:13:07.680Z,10.30
2023-01-09T03:15:39.232Z,10.40
2023-01-09T03:18:11.789Z,10.40
2023-01-09T03:20:41.298Z,10.30
2023-01-09T03:23:09.894Z,10.40
2023-01-09T03:25:38.468Z,10.40
2023-01-09T03:28:09.113Z,10.40
2023-01-09T03:30:38.663Z,10.40
2023-01-09T03:33:08.216Z,10.40
2023-01-09T03:35:36.879Z,10.40
2023-01-09T03:38:06.658Z,10.40
2023-01-09T03:40:36.689Z,10.40
2023-01-09T03:43:04.983Z,10.40
2023-01-09T03:45:33.617Z,10.40
2023-01-09T03:48:02.287Z,10.40
2023-01-09T03:50:32.255Z,10.40
2023-01-09T03:53:00.381Z,10.40
2023-01-09T03:55:29.015Z,10.40
2023-01-09T03:57:57.228Z,10.50
2023-01-09T04:00:26.051Z,10.50
2023-01-09T04:02:54.152Z,10.50
2023-01-09T04:05:22.773Z,10.50
2023-01-09T04:07:52.966Z,10.50
2023-01-09T04:10:21.719Z,10.50
2023-01-09T04:12:49.849Z,10.50
2023-01-09T04:15:18.562Z,10.50
2023-01-09T04:17:46.722Z,10.50
2023-01-09T04:20:14.958Z,10.50
2023-01-09T04:22:43.615Z,10.50
2023-01-09T04:25:13.306Z,10.50
2023-01-09T04:27:41.597Z,10.60
2023-01-09T04:30:10.995Z,10.50
2023-01-09T04:32:39.199Z,10.60
2023-01-09T04:35:08.800Z,10.60
2023-01-09T04:37:37.748Z,10.50
2023-01-09T04:40:08.186Z,10.60
2023-01-09T04:42:38.155Z,10.60
2023-01-09T04:45:07.600Z,10.60
2023-01-09T04:47:36.228Z,10.60
2023-01-09T04:50:04.898Z,10.60
2023-01-09T04:52:33.002Z,10.60
2023-01-09T04:55:01.702Z,10.60
2023-01-09T04:57:29.841Z,10.60
2023-01-09T04:59:59.317Z,10.60
2023-01-09T05:02:28.031Z,10.60
2023-01-09T05:04:56.148Z,10.60
2023-01-09T05:07:24.773Z,10.60
2023-01-09T05:09:52.956Z,10.60
2023-01-09T05:12:21.570Z,10.60
2023-01-09T05:14:49.674Z,10.60
2023-01-09T05:17:19.744Z,10.60
2023-01-09T05:19:47.932Z,10.60
2023-01-09T05:22:16.562Z,10.60
2023-01-09T05:24:45.158Z,10.60
2023-01-09T05:27:13.745Z,10.60
2023-01-09T05:29:41.874Z,10.60
2023-01-09T05:32:10.491Z,10.70
2023-01-09T05:34:39.964Z,10.70
2023-01-09T05:37:08.547Z,10.70
2023-01-09T05:39:36.647Z,10.70
2023-01-09T05:42:05.480Z,10.70
2023-01-09T05:44:33.633Z,10.70
2023-01-09T05:47:02.961Z,10.70
2023-01-09T05:49:31.155Z,10.70
2023-01-09T05:52:01.127Z,10.70
2023-01-09T05:54:29.740Z,10.70
2023-01-09T05:56:58.639Z,10.70
2023-01-09T05:59:27.236Z,10.70
2023-01-09T06:01:55.897Z,10.70
2023-01-09T06:04:24.550Z,10.70
2023-01-09T06:06:52.686Z,10.70
2023-01-09T06:09:22.644Z,10.70
2023-01-09T06:11:50.768Z,10.70
2023-01-09T06:14:19.804Z,10.70
2023-01-09T06:16:47.953Z,10.70
2023-01-09T06:19:16.660Z,10.70
2023-01-09T06:21:45.255Z,10.60
2023-01-09T06:24:13.849Z,10.60
2023-01-09T06:26:43.821Z,10.60
2023-01-09T06:29:12.780Z,10.60
2023-01-09T06:31:41.374Z,10.60
2023-01-09T06:34:09.664Z,10.60
2023-01-09T06:36:38.231Z,10.50
2023-01-09T06:39:06.824Z,10.50
2023-01-09T06:41:35.453Z,10.50
2023-01-09T06:44:04.909Z,10.50
2023-01-09T06:46:33.560Z,10.40
2023-01-09T06:49:01.691Z,10.00
2023-01-09T06:51:30.305Z,10.40
2023-01-09T06:53:58.981Z,10.40
2023-01-09T06:56:27.074Z,10.40
2023-01-09T06:58:56.200Z,10.40
2023-01-09T07:01:26.248Z,10.40
2023-01-09T07:03:54.489Z,10.40
2023-01-09T07:06:23.079Z,10.30
2023-01-09T07:08:51.653Z,10.30
2023-01-09T07:11:19.722Z,10.30
2023-01-09T07:13:48.372Z,10.30
2023-01-09T07:16:16.992Z,10.30
2023-01-09T07:18:46.967Z,10.30
2023-01-09T07:21:15.272Z,10.30
2023-01-09T07:23:43.423Z,10.30
2023-01-09T07:26:11.783Z,10.20
2023-01-09T07:28:40.492Z,10.20
2023-01-09T07:31:08.711Z,10.20
2023-01-09T07:33:36.980Z,10.20
2023-01-09T07:36:07.569Z,10.20
2023-01-09T07:38:37.545Z,10.20
2023-01-09T07:41:06.435Z,10.20
2023-01-09T07:43:35.455Z,10.20
2023-01-09T07:46:03.645Z,10.10
2023-01-09T07:48:31.822Z,10.10
2023-01-09T07:51:00.530Z,10.10
2023-01-09T07:53:30.560Z,10.10
2023-01-09T07:55:59.138Z,10.10
2023-01-09T07:58:27.693Z,10.10
2023-01-09T08:00:55.882Z,10.10
2023-01-09T08:03:24.555Z,10.10
2023-01-09T08:05:52.725Z,10.10
2023-01-09T08:08:21.429Z,10.10
2023-01-09T08:10:50.876Z,10.10
2023-01-09T08:13:19.471Z,10.20
2023-01-09T08:15:47.600Z,10.10
2023-01-09T08:18:16.216Z,10.10
2023-01-09T08:20:44.867Z,10.10
2023-01-09T08:23:12.959Z,10.20
2023-01-09T08:25:41.541Z,10.20
2023-01-09T08:28:11.084Z,10.20
2023-01-09T08:30:41.075Z,10.10
2023-01-09T08:33:09.285Z,10.10
2023-01-09T08:35:38.727Z,10.10
2023-01-09T08:38:06.828Z,10.10
2023-01-09T08:40:35.403Z,10.10
2023-01-09T08:43:21.310Z,10.10
2023-01-09T08:46:16.813Z,10.10
2023-01-09T08:48:45.495Z,10.20
2023-01-09T08:51:13.574Z,10.20
2023-01-09T08:53:42.145Z,10.10
2023-01-09T08:56:10.861Z,10.10
2023-01-09T08:58:38.995Z,10.10
2023-01-09T09:01:09.889Z,10.10
2023-01-09T09:03:37.985Z,10.10
2023-01-09T09:06:07.213Z,10.20
2023-01-09T09:08:35.293Z,10.10
2023-01-09T09:11:03.866Z,10.20
2023-01-09T09:13:32.014Z,10.20
2023-01-09T09:16:00.692Z,10.10
2023-01-09T09:18:30.705Z,10.20
2023-01-09T09:20:58.888Z,10.20
2023-01-09T09:23:27.448Z,10.10
2023-01-09T09:25:55.655Z,10.20
2023-01-09T09:28:24.249Z,10.20
2023-01-09T09:30:52.369Z,10.20
2023-01-09T09:33:21.021Z,10.20
2023-01-09T09:35:50.463Z,10.20
2023-01-09T09:38:19.612Z,10.30
2023-01-09T09:41:35.856Z,10.30
2023-01-09T09:44:39.584Z,10.30
2023-01-09T09:47:19.599Z,10.30
2023-01-09T09:49:57.821Z,10.30
2023-01-09T09:52:35.822Z,10.30
2023-01-09T09:55:14.782Z,10.40
2023-01-09T09:57:43.552Z,10.30
2023-01-09T10:00:20.167Z,10.40
2023-01-09T10:02:51.854Z,10.40
2023-01-09T10:05:27.367Z,10.40
2023-01-09T10:08:05.854Z,10.40
2023-01-09T10:10:43.999Z,10.40
2023-01-09T10:13:35.764Z,10.40
2023-01-09T10:16:13.803Z,10.40
2023-01-09T10:18:53.356Z,10.50
2023-01-09T10:21:30.150Z,10.50
2023-01-09T10:24:17.103Z,10.50
2023-01-09T10:26:49.725Z,10.50
2023-01-09T10:29:32.721Z,10.50
2023-01-09T10:32:23.722Z,10.50
2023-01-09T10:35:05.117Z,10.50
2023-01-09T10:37:38.884Z,10.50
2023-01-09T10:40:19.804Z,10.50
2023-01-09T10:42:51.613Z,10.50
2023-01-09T10:45:25.666Z,10.50
2023-01-09T10:48:00.912Z,10.50
2023-01-09T10:50:35.676Z,10.50
2023-01-09T10:53:14.990Z,10.50
2023-01-09T10:55:48.467Z,10.50
2023-01-09T10:58:19.810Z,10.50
2023-01-09T11:00:50.387Z,10.50
2023-01-09T11:03:21.437Z,10.60
2023-01-09T11:05:53.325Z,10.60
2023-01-09T11:08:29.950Z,10.60
2023-01-09T11:11:01.397Z,10.60
2023-01-09T11:13:32.343Z,10.60
2023-01-09T11:16:06.725Z,10.60
2023-01-09T11:18:36.162Z,10.60
2023-01-09T11:21:16.296Z,10.60
2023-01-09T11:23:44.525Z,10.60
2023-01-09T11:26:25.627Z,10.60
2023-01-09T11:29:12.255Z,10.60
2023-01-09T11:31:42.417Z,10.60
2023-01-09T11:34:18.051Z,10.60
2023-01-09T11:36:47.513Z,10.60
2023-01-09T11:39:23.938Z,10.60
2023-01-09T11:41:59.381Z,10.60
2023-01-09T11:44:28.906Z,10.60
2023-01-09T11:46:57.730Z,11.60
2023-01-09T11:49:28.694Z,10.60
2023-01-09T11:52:16.778Z,10.60
2023-01-09T11:54:50.167Z,10.60
2023-01-09T11:57:20.447Z,10.60
2023-01-09T11:59:48.591Z,10.60
2023-01-09T12:02:53.344Z,10.70
2023-01-09T12:05:32.995Z,10.60
2023-01-09T12:08:20.556Z,10.60
2023-01-09T12:11:10.373Z,10.70
2023-01-09T12:13:55.637Z,10.60
2023-01-09T12:16:31.979Z,10.60
2023-01-09T12:19:24.401Z,10.70
2023-01-09T12:22:04.082Z,10.60
2023-01-09T12:24:48.217Z,10.60
2023-01-09T12:27:30.235Z,10.60
2023-01-09T12:30:23.824Z,10.60
2023-01-09T12:33:10.453Z,10.60
2023-01-09T12:35:44.491Z,10.60
2023-01-09T12:38:35.181Z,10.60
2023-01-09T12:41:32.799Z,10.60
2023-01-09T12:44:24.255Z,10.60
2023-01-09T12:47:17.204Z,10.60
2023-01-09T12:49:51.313Z,10.60
2023-01-09T12:52:25.071Z,10.70
2023-01-09T12:54:58.013Z,10.70
2023-01-09T12:57:31.921Z,10.70
2023-01-09T13:00:05.378Z,10.70
2023-01-09T13:02:43.461Z,10.80
2023-01-09T13:05:19.794Z,10.70
2023-01-09T13:07:53.194Z,10.70
2023-01-09T13:10:27.837Z,10.70
2023-01-09T13:12:59.161Z,10.70
2023-01-09T13:15:31.716Z,10.70
2023-01-09T13:18:07.387Z,10.80
2023-01-09T13:20:43.611Z,10.80
2023-01-09T13:23:16.543Z,10.80
2023-01-09T13:25:48.876Z,10.90
2023-01-09T13:28:20.626Z,10.90
2023-01-09T13:31:19.290Z,11.00
2023-01-09T13:33:52.649Z,11.10
2023-01-09T13:36:26.181Z,11.10
2023-01-09T13:38:56.228Z,11.10
2023-01-09T13:41:45.449Z,11.20
2023-01-09T13:44:29.039Z,11.20
2023-01-09T13:46:59.256Z,11.20
2023-01-09T13:49:51.543Z,11.10
2023-01-09T13:52:37.853Z,11.20
2023-01-09T13:55:26.113Z,11.20
2023-01-09T13:58:22.731Z,11.30
2023-01-09T14:01:00.529Z,11.30
2023-01-09T14:03:33.164Z,11.30
2023-01-09T14:06:21.993Z,11.30
2023-01-09T14:09:05.905Z,11.30
2023-01-09T14:11:34.612Z,11.30
2023-01-09T14:14:16.015Z,11.30
2023-01-09T14:16:45.781Z,11.30
2023-01-09T14:19:37.798Z,11.20
2023-01-09T14:22:09.108Z,11.20
2023-01-09T14:24:44.053Z,11.20
2023-01-09T14:27:45.887Z,11.20
2023-01-09T14:30:34.741Z,11.10
2023-01-09T14:33:05.132Z,11.10
2023-01-09T14:35:46.865Z,11.10
2023-01-09T14:38:27.153Z,11.00
2023-01-09T14:41:01.152Z,11.00
2023-01-09T14:43:49.391Z,11.00
2023-01-09T14:46:20.594Z,10.90
2023-01-09T14:49:04.203Z,10.90
2023-01-09T14:51:37.432Z,10.90
2023-01-09T14:54:23.011Z,10.90
2023-01-09T14:56:51.750Z,10.80
2023-01-09T14:59:19.844Z,10.80
2023-01-09T15:01:52.132Z,10.80
2023-01-09T15:04:35.153Z,10.70
2023-01-09T15:07:04.575Z,10.70
2023-01-09T15:09:44.370Z,10.60
2023-01-09T15:12:20.054Z,10.60
2023-01-09T15:14:52.607Z,10.50
2023-01-09T15:17:23.601Z,10.50
2023-01-09T15:19:51.994Z,10.40
2023-01-09T15:22:26.549Z,10.40
2023-01-09T15:24:56.106Z,10.40
2023-01-09T15:27:24.670Z,10.30
2023-01-09T15:29:53.666Z,10.30
2023-01-09T15:32:26.086Z,10.30
2023-01-09T15:34:55.881Z,10.20
2023-01-09T15:37:29.698Z,10.20
2023-01-09T15:40:01.176Z,10.20
2023-01-09T15:42:50.128Z,10.10
2023-01-09T15:45:27.483Z,10.10
2023-01-09T15:48:15.095Z,10.10
2023-01-09T15:50:43.853Z,10.00
2023-01-09T15:53:15.707Z,10.00
2023-01-09T15:55:46.626Z,9.90
2023-01-09T15:58:29.247Z,9.80
2023-01-09T16:01:01.512Z,9.80
2023-01-09T16:03:30.933Z,9.80
2023-01-09T16:06:05.707Z,9.80
2023-01-09T16:08:36.880Z,9.70
2023-01-09T16:11:10.738Z,9.80
2023-01-09T16:13:46.677Z,9.70
2023-01-09T16:16:24.203Z,9.70
2023-01-09T16:18:53.703Z,9.70
2023-01-09T16:21:25.720Z,9.70
2023-01-09T16:23:57.486Z,9.70
2023-01-09T16:26:29.794Z,9.60
2023-01-09T16:28:58.333Z,9.60
2023-01-09T16:31:29.847Z,9.60
2023-01-09T16:34:06.543Z,9.60
2023-01-09T16:36:36.919Z,9.50
2023-01-09T16:39:07.151Z,9.50
2023-01-09T16:41:53.751Z,9.50
2023-01-09T16:44:22.287Z,9.50
2023-01-09T16:46:50.412Z,9.50
2023-01-09T16:49:20.745Z,9.50
2023-01-09T16:51:49.582Z,9.50
2023-01-09T16:54:18.668Z,9.40
2023-01-09T16:56:50.337Z,9.40
2023-01-09T16:59:22.115Z,9.40
2023-01-09T17:01:50.245Z,9.40
2023-01-09T17:04:20.574Z,9.30
2023-01-09T17:06:49.999Z,9.30
2023-01-09T17:09:20.206Z,9.30
2023-01-09T17:11:50.017Z,9.30
2023-01-09T17:14:18.152Z,9.30
2023-01-09T17:16:47.300Z,9.20
2023-01-09T17:19:22.220Z,9.30
2023-01-09T17:21:50.928Z,9.20
2023-01-09T17:24:37.040Z,9.20
2023-01-09T17:27:24.396Z,9.20
2023-01-09T17:29:52.491Z,9.20
2023-01-09T17:32:24.367Z,9.10
2023-01-09T17:34:52.432Z,9.10
2023-01-09T17:37:21.544Z,9.10
2023-01-09T17:39:49.617Z,9.00
2023-01-09T17:42:19.761Z,9.00
2023-01-09T17:44:48.063Z,9.00
2023-01-09T17:47:16.680Z,9.00
2023-01-09T17:49:45.253Z,9.00
2023-01-09T17:52:13.307Z,9.00
2023-01-09T17:54:43.551Z,9.00
2023-01-09T17:57:16.708Z,9.00
2023-01-09T17:59:46.329Z,9.00
2023-01-09T18:02:18.253Z,9.00
2023-01-09T18:04:47.257Z,9.00
2023-01-09T18:07:16.199Z,9.00
2023-01-09T18:09:45.395Z,9.00
2023-01-09T18:12:13.775Z,8.90
2023-01-09T18:14:42.850Z,9.00
2023-01-09T18:17:14.271Z,9.00
2023-01-09T18:19:42.856Z,9.00
2023-01-09T18:22:10.999Z,9.00
2023-01-09T18:24:39.802Z,9.00
2023-01-09T18:27:08.027Z,9.00
2023-01-09T18:29:36.175Z,9.00
2023-01-09T18:32:04.476Z,9.00
2023-01-09T18:34:34.516Z,9.00
2023-01-09T18:37:03.183Z,9.00
2023-01-09T18:39:31.522Z,9.00
2023-01-09T18:41:59.680Z,9.00
2023-01-09T18:44:28.365Z,9.00
2023-01-09T18:46:56.550Z,9.00
2023-01-09T18:49:24.753Z,9.00
2023-01-09T18:51:58.006Z,9.00
2023-01-09T18:54:34.317Z,9.00
2023-01-09T18:57:02.886Z,8.30
2023-01-09T18:59:31.408Z,9.00
2023-01-09T19:02:02.039Z,9.00
2023-01-09T19:04:30.585Z,9.00
2023-01-09T19:07:00.037Z,9.00
2023-01-09T19:09:28.674Z,9.00
2023-01-09T19:11:57.328Z,9.00
2023-01-09T19:14:25.511Z,9.00
2023-01-09T19:16:54.950Z,9.00
2023-01-09T19:19:23.048Z,9.00
2023-01-09T19:21:51.561Z,9.00
2023-01-09T19:24:21.590Z,9.00
2023-01-09T19:26:50.182Z,9.00
2023-01-09T19:29:18.889Z,8.90
2023-01-09T19:31:49.055Z,9.00
2023-01-09T19:34:17.620Z,9.00
2023-01-09T19:36:47.735Z,8.90
2023-01-09T19:39:16.702Z,8.90
2023-01-09T19:41:46.773Z,8.90
2023-01-09T19:44:14.886Z,8.90
2023-01-09T19:46:42.983Z,8.90
2023-01-09T19:49:13.934Z,8.90
2023-01-09T19:51:42.527Z,8.90
2023-01-09T19:54:12.865Z,8.90
2023-01-09T19:56:43.966Z,9.00
2023-01-09T19:59:15.274Z,9.00
2023-01-09T20:01:44.095Z,9.00
2023-01-09T20:04:15.086Z,9.00
2023-01-09T20:06:45.333Z,9.00
2023-01-09T20:09:15.736Z,9.00
2023-01-09T20:11:45.400Z,9.00
2023-01-09T20:14:15.808Z,9.00
2023-01-09T20:16:44.622Z,9.00
2023-01-09T20:19:14.301Z,9.00
2023-01-09T20:21:43.354Z,9.10
2023-01-09T20:24:15.120Z,9.10
2023-01-09T20:26:43.772Z,9.10
2023-01-09T20:29:11.897Z,9.10
2023-01-09T20:31:41.518Z,9.10
2023-01-09T20:34:10.903Z,9.10
2023-01-09T20:36:39.486Z,9.20
2023-01-09T20:39:10.752Z,9.20
2023-01-09T20:41:39.025Z,9.20
2023-01-09T20:44:09.197Z,9.20
2023-01-09T20:46:39.504Z,9.20
2023-01-09T20:49:12.261Z,9.20
2023-01-09T20:51:43.534Z,9.20
2023-01-09T20:54:11.711Z,9.20
2023-01-09T20:56:40.431Z,9.20
2023-01-09T20:59:12.761Z,9.30
2023-01-09T21:01:41.583Z,9.20
2023-01-09T21:04:18.674Z,9.30
2023-01-09T21:06:49.660Z,9.30
2023-01-09T21:09:18.641Z,9.30
2023-01-09T21:11:47.333Z,9.30
2023-01-09T21:14:15.923Z,9.30
2023-01-09T21:16:53.812Z,9.30
2023-01-09T21:19:24.326Z,9.30
2023-01-09T21:21:53.491Z,9.30
2023-01-09T21:24:22.268Z,9.30
2023-01-09T21:26:50.433Z,9.30
2023-01-09T21:29:19.036Z,9.30
2023-01-09T21:31:47.627Z,9.30
2023-01-09T21:34:17.921Z,9.30
2023-01-09T21:36:50.616Z,9.40
2023-01-09T21:39:21.357Z,9.40
2023-01-09T21:42:07.552Z,9.40
2023-01-09T21:44:49.606Z,9.40
2023-01-09T21:47:17.740Z,9.40
2023-01-09T21:49:46.313Z,9.30
2023-01-09T21:52:18.766Z,9.40
2023-01-09T21:54:47.351Z,9.40
2023-01-09T21:57:15.475Z,9.30
2023-01-09T21:59:43.594Z,9.30
2023-01-09T22:02:13.470Z,9.30
2023-01-09T22:04:43.003Z,9.30
2023-01-09T22:07:11.872Z,9.30
2023-01-09T22:09:43.339Z,9.20
2023-01-09T22:12:13.791Z,9.30
2023-01-09T22:14:42.319Z,9.20
2023-01-09T22:17:10.458Z,9.30
2023-01-09T22:19:39.084Z,9.20
2023-01-09T22:22:08.590Z,9.20
2023-01-09T22:24:36.745Z,9.20
2023-01-09T22:27:07.622Z,9.20
2023-01-09T22:29:36.203Z,9.20
2023-01-09T22:32:04.629Z,9.30
2023-01-09T22:34:33.280Z,9.20
2023-01-09T22:37:01.859Z,9.20
2023-01-09T22:39:30.036Z,9.30
2023-01-09T22:41:59.139Z,9.20
2023-01-09T22:44:29.299Z,9.20
2023-01-09T22:46:58.415Z,9.20
2023-01-09T22:49:30.138Z,9.20
2023-01-09T22:52:01.947Z,9.20
2023-01-09T22:54:30.538Z,9.20
2023-01-09T22:56:59.109Z,9.20
2023-01-09T22:59:30.098Z,9.20
2023-01-09T23:02:00.129Z,9.20
2023-01-09T23:04:28.798Z,9.20
2023-01-09T23:06:56.927Z,9.20
2023-01-09T23:09:27.076Z,9.20
2023-01-09T23:12:04.046Z,9.10
2023-01-09T23:14:36.531Z,9.20
2023-01-09T23:17:05.201Z,9.10
2023-01-09T23:19:35.756Z,9.10
2023-01-09T23:22:05.980Z,9.10
2023-01-09T23:24:35.206Z,9.20
2023-01-09T23:27:04.494Z,9.10
2023-01-09T23:29:38.382Z,9.10
2023-01-09T23:32:07.916Z,9.10
2023-01-09T23:34:39.938Z,9.10
2023-01-09T23:37:10.095Z,9.10
2023-01-09T23:39:38.280Z,9.10
2023-01-09T23:42:29.162Z,9.10
2023-01-09T23:44:58.606Z,9.10
2023-01-09T23:47:26.685Z,9.10
2023-01-09T23:49:55.214Z,9.10
2023-01-09T23:52:23.342Z,9.10
2023-01-09T23:54:51.858Z,9.10
2023-01-09T23:57:20.425Z,9.10
2023-01-09T23:59:48.963Z,9.10
